createdAt,value
2023-03-07T00:00:46.197Z,-67
2023-03-07T00:05:47.733Z,-70
2023-03-07T00:10:49.218Z,-68
2023-03-07T00:15:50.798Z,-69
2023-03-07T00:21:00.603Z,-71
2023-03-07T00:26:05.012Z,-68
2023-03-07T00:31:09.896Z,-68
2023-03-07T00:36:14.761Z,-67
2023-03-07T00:41:19.649Z,-69
2023-03-07T00:46:23.362Z,-74
2023-03-07T00:51:24.907Z,-73
2023-03-07T00:56:27.004Z,-72
2023-03-07T01:01:28.549Z,-70
2023-03-07T01:06:32.424Z,-71
2023-03-07T01:11:35.119Z,-74
2023-03-07T01:16:38.252Z,-71
2023-03-07T01:21:42.463Z,-72
2023-03-07T01:26:44.236Z,-72
2023-03-07T01:31:45.952Z,-70
2023-03-07T01:36:47.661Z,-68
2023-03-07T01:41:49.277Z,-68
2023-03-07T01:46:54.412Z,-68
2023-03-07T01:52:18.165Z,-69
2023-03-07T01:57:23.616Z,-69
2023-03-07T02:02:26.393Z,-69
2023-03-07T02:07:32.664Z,-67
2023-03-07T02:12:34.981Z,-66
2023-03-07T02:17:37.084Z,-67
2023-03-07T02:22:40.702Z,-68
2023-03-07T02:27:43.537Z,-71
2023-03-07T02:32:45.279Z,-69
2023-03-07T02:37:50.941Z,-71
2023-03-07T02:42:55.619Z,-68
2023-03-07T02:47:57.131Z,-71
2023-03-07T02:52:58.659Z,-70
2023-03-07T02:58:00.154Z,-70
2023-03-07T03:03:01.683Z,-69
2023-03-07T03:08:03.353Z,-72
2023-03-07T03:13:05.340Z,-70
2023-03-07T03:18:06.806Z,-69
2023-03-07T03:23:08.700Z,-70
2023-03-07T03:28:10.376Z,-70
2023-03-07T03:33:12.327Z,-69
2023-03-07T03:38:13.833Z,-70
2023-03-07T03:43:15.472Z,-70
2023-03-07T03:48:16.993Z,-71
2023-03-07T03:53:18.547Z,-71
2023-03-07T03:58:20.006Z,-69
2023-03-07T04:03:21.511Z,-70
2023-03-07T04:08:23.354Z,-70
2023-03-07T04:13:25.323Z,-70
2023-03-07T04:18:26.902Z,-70
2023-03-07T04:23:29.013Z,-70
2023-03-07T04:28:45.106Z,-70
2023-03-07T04:33:47.458Z,-69
2023-03-07T04:38:50.136Z,-69
2023-03-07T04:43:51.702Z,-69
2023-03-07T04:48:53.212Z,-68
2023-03-07T04:53:54.743Z,-71
2023-03-07T04:58:56.245Z,-68
2023-03-07T05:03:57.770Z,-66
2023-03-07T05:08:59.435Z,-68
2023-03-07T05:14:00.919Z,-64
2023-03-07T05:19:06.014Z,-68
2023-03-07T05:24:08.135Z,-68
2023-03-07T05:29:10.046Z,-69
2023-03-07T05:34:11.830Z,-71
2023-03-07T05:39:16.029Z,-71
2023-03-07T05:44:17.606Z,-71
2023-03-07T05:49:19.599Z,-68
2023-03-07T05:54:21.097Z,-65
2023-03-07T05:59:22.600Z,-67
2023-03-07T06:04:24.095Z,-70
2023-03-07T06:09:26.076Z,-69
2023-03-07T06:14:27.549Z,-74
2023-03-07T06:19:29.327Z,-72
2023-03-07T06:24:30.879Z,-73
2023-03-07T06:29:32.427Z,-68
2023-03-07T06:34:34.225Z,-70
2023-03-07T06:39:35.980Z,-74
2023-03-07T06:44:37.485Z,-70
2023-03-07T06:49:39.010Z,-72
2023-03-07T06:54:40.539Z,-67
2023-03-07T06:59:42.012Z,-65
2023-03-07T07:04:44.232Z,-78
2023-03-07T07:09:45.757Z,-70
2023-03-07T07:14:47.339Z,-70
2023-03-07T07:19:48.832Z,-73
2023-03-07T07:24:50.505Z,-74
2023-03-07T07:29:52.265Z,-71
2023-03-07T07:34:53.970Z,-70
2023-03-07T07:39:55.439Z,-73
2023-03-07T07:44:56.916Z,-72
2023-03-07T07:49:58.551Z,-68
2023-03-07T07:55:00.066Z,-73
2023-03-07T08:00:01.775Z,-72
2023-03-07T08:05:06.567Z,-70
2023-03-07T08:10:09.058Z,-70
2023-03-07T08:15:11.987Z,-66
2023-03-07T08:20:13.918Z,-67
2023-03-07T08:25:20.632Z,-67
2023-03-07T08:30:27.373Z,-73
2023-03-07T08:35:30.816Z,-72
2023-03-07T08:40:32.513Z,-69
2023-03-07T08:45:34.067Z,-69
2023-03-07T08:50:35.564Z,-66
2023-03-07T08:55:37.076Z,-70
2023-03-07T09:00:39.656Z,-69
2023-03-07T09:05:41.284Z,-68
2023-03-07T09:10:42.938Z,-62
2023-03-07T09:15:44.854Z,-66
2023-03-07T09:20:46.384Z,-74
2023-03-07T09:25:47.869Z,-74
2023-03-07T09:30:49.352Z,-74
2023-03-07T09:35:51.268Z,-77
2023-03-07T09:40:53.124Z,-70
2023-03-07T09:46:12.988Z,-70
2023-03-07T09:51:36.248Z,-67
2023-03-07T09:56:43.243Z,-72
2023-03-07T10:01:46.583Z,-75
2023-03-07T10:06:56.433Z,-72
2023-03-07T10:12:26.240Z,-72
2023-03-07T10:17:35.336Z,-72
2023-03-07T10:22:52.714Z,-73
2023-03-07T10:28:01.651Z,-71
2023-03-07T10:33:09.176Z,-69
2023-03-07T10:38:19.908Z,-71
2023-03-07T10:43:33.070Z,-72
2023-03-07T10:48:38.899Z,-69
2023-03-07T10:53:40.817Z,-70
2023-03-07T10:59:05.676Z,-71
2023-03-07T11:04:20.798Z,-68
2023-03-07T11:09:31.390Z,-64
2023-03-07T11:15:15.447Z,-67
2023-03-07T11:20:30.428Z,-72
2023-03-07T11:25:36.408Z,-73
2023-03-07T11:30:50.295Z,-70
2023-03-07T11:36:07.477Z,-72
2023-03-07T11:41:36.356Z,-70
2023-03-07T11:47:08.358Z,-68
2023-03-07T11:52:38.813Z,-67
2023-03-07T11:57:51.558Z,-64
2023-03-07T12:03:02.392Z,-69
2023-03-07T12:08:44.250Z,-68
2023-03-07T12:14:15.933Z,-69
2023-03-07T12:19:37.248Z,-66
2023-03-07T12:24:49.403Z,-76
2023-03-07T12:29:57.674Z,-80
2023-03-07T12:35:18.057Z,-77
2023-03-07T12:40:34.017Z,-72
2023-03-07T12:45:50.089Z,-71
2023-03-07T12:51:04.715Z,-76
2023-03-07T12:56:26.468Z,-72
2023-03-07T13:01:33.707Z,-72
2023-03-07T13:06:39.985Z,-72
2023-03-07T13:12:16.508Z,-71
2023-03-07T13:17:27.134Z,-73
2023-03-07T13:22:28.535Z,-71
2023-03-07T13:27:46.362Z,-73
2023-03-07T13:32:50.893Z,-72
2023-03-07T13:37:57.041Z,-70
2023-03-07T13:42:58.529Z,-71
2023-03-07T13:47:59.973Z,-69
2023-03-07T13:53:15.005Z,-72
2023-03-07T13:58:31.001Z,-72
2023-03-07T14:03:38.854Z,-66
2023-03-07T14:08:41.392Z,-71
2023-03-07T14:14:01.352Z,-72
2023-03-07T14:19:32.100Z,-75
2023-03-07T14:24:50.694Z,-75
2023-03-07T14:29:54.721Z,-71
2023-03-07T14:34:56.326Z,-71
2023-03-07T14:40:20.334Z,-75
2023-03-07T14:45:41.971Z,-76
2023-03-07T14:50:44.906Z,-66
2023-03-07T14:55:49.019Z,-70
2023-03-07T15:01:12.070Z,-68
2023-03-07T15:06:16.985Z,-69
2023-03-07T15:11:38.135Z,-64
2023-03-07T15:16:45.933Z,-65
2023-03-07T15:21:59.779Z,-70
2023-03-07T15:27:02.113Z,-67
2023-03-07T15:32:10.201Z,-70
2023-03-07T15:37:24.143Z,-69
2023-03-07T15:42:25.805Z,-69
2023-03-07T15:47:29.996Z,-67
2023-03-07T15:52:36.806Z,-69
2023-03-07T15:57:49.970Z,-65
2023-03-07T16:02:51.616Z,-76
2023-03-07T16:07:55.495Z,-67
2023-03-07T16:12:59.673Z,-73
2023-03-07T16:18:01.313Z,-71
2023-03-07T16:23:03.057Z,-68
2023-03-07T16:28:04.806Z,-64
2023-03-07T16:33:06.263Z,-68
2023-03-07T16:38:08.679Z,-67
2023-03-07T16:43:30.584Z,-68
2023-03-07T16:48:32.130Z,-65
2023-03-07T16:53:33.621Z,-64
2023-03-07T16:58:35.971Z,-66
2023-03-07T17:03:37.463Z,-67
2023-03-07T17:08:39.034Z,-65
2023-03-07T17:13:40.732Z,-67
2023-03-07T17:18:42.956Z,-65
2023-03-07T17:23:45.108Z,-65
2023-03-07T17:28:47.168Z,-66
2023-03-07T17:33:49.895Z,-71
2023-03-07T17:38:51.997Z,-66
2023-03-07T17:43:53.448Z,-71
2023-03-07T17:48:54.902Z,-66
2023-03-07T17:53:57.220Z,-65
2023-03-07T17:59:01.447Z,-64
2023-03-07T18:04:05.288Z,-62
2023-03-07T18:09:07.643Z,-61
2023-03-07T18:14:10.143Z,-62
2023-03-07T18:19:25.312Z,-63
2023-03-07T18:24:30.373Z,-61
2023-03-07T18:29:32.587Z,-60
2023-03-07T18:34:34.670Z,-65
2023-03-07T18:39:36.928Z,-66
2023-03-07T18:44:41.009Z,-63
2023-03-07T18:49:43.022Z,-63
2023-03-07T18:54:45.366Z,-65
2023-03-07T18:59:47.346Z,-64
2023-03-07T19:04:49.396Z,-61
2023-03-07T19:09:53.694Z,-63
2023-03-07T19:14:55.482Z,-66
2023-03-07T19:19:59.352Z,-62
2023-03-07T19:25:00.905Z,-65
2023-03-07T19:30:02.436Z,-60
2023-03-07T19:35:05.710Z,-61
2023-03-07T19:40:08.642Z,-62
2023-03-07T19:45:10.842Z,-61
2023-03-07T19:50:12.911Z,-62
2023-03-07T19:55:14.548Z,-58
2023-03-07T20:00:16.212Z,-62
2023-03-07T20:05:17.729Z,-64
2023-03-07T20:10:19.661Z,-63
2023-03-07T20:15:21.170Z,-63
2023-03-07T20:20:22.646Z,-62
2023-03-07T20:25:28.109Z,-63
2023-03-07T20:30:31.161Z,-63
2023-03-07T20:35:32.676Z,-63
2023-03-07T20:40:34.196Z,-62
2023-03-07T20:45:35.676Z,-59
2023-03-07T20:50:37.153Z,-60
2023-03-07T20:55:38.756Z,-64
2023-03-07T21:00:40.319Z,-60
2023-03-07T21:05:41.832Z,-60
2023-03-07T21:10:43.376Z,-62
2023-03-07T21:15:53.469Z,-61
2023-03-07T21:20:59.209Z,-65
2023-03-07T21:26:03.696Z,-62
2023-03-07T21:31:13.510Z,-62
2023-03-07T21:36:16.732Z,-62
2023-03-07T21:41:19.208Z,-63
2023-03-07T21:46:21.239Z,-62
2023-03-07T21:51:22.802Z,-60
2023-03-07T21:56:25.608Z,-60
2023-03-07T22:01:28.955Z,-62
2023-03-07T22:06:30.570Z,-61
2023-03-07T22:11:32.089Z,-61
2023-03-07T22:16:33.704Z,-61
2023-03-07T22:21:35.222Z,-61
2023-03-07T22:26:37.009Z,-61
2023-03-07T22:31:38.588Z,-61
2023-03-07T22:36:40.174Z,-61
2023-03-07T22:41:41.718Z,-63
2023-03-07T22:46:43.190Z,-60
2023-03-07T22:51:44.736Z,-60
2023-03-07T22:56:46.368Z,-59
2023-03-07T23:01:48.609Z,-61
2023-03-07T23:06:50.067Z,-60
2023-03-07T23:11:51.570Z,-60
2023-03-07T23:16:53.015Z,-60
2023-03-07T23:21:54.488Z,-60
2023-03-07T23:26:56.176Z,-61
2023-03-07T23:31:58.429Z,-61
2023-03-07T23:36:59.891Z,-60
2023-03-07T23:42:01.333Z,-60
2023-03-07T23:47:03.360Z,-63
2023-03-07T23:52:05.090Z,-62
2023-03-07T23:57:06.575Z,-63
